createdAt,value
2023-05-19T00:00:52.347Z,100338.87
2023-05-19T00:01:55.098Z,100342.44
2023-05-19T00:02:57.444Z,100336.84
2023-05-19T00:04:02.823Z,100329.16
2023-05-19T00:05:05.302Z,100337.19
2023-05-19T00:06:10.781Z,100335.53
2023-05-19T00:07:17.949Z,100337.34
2023-05-19T00:08:22.721Z,100342.44
2023-05-19T00:09:24.859Z,100348.87
2023-05-19T00:10:31.744Z,100337.00
2023-05-19T00:11:37.953Z,100351.16
2023-05-19T00:12:40.378Z,100351.59
2023-05-19T00:13:42.720Z,100351.75
2023-05-19T00:14:44.842Z,100356.84
2023-05-19T00:15:47.000Z,100352.59
2023-05-19T00:16:49.100Z,100351.00
2023-05-19T00:17:52.394Z,100352.84
2023-05-19T00:18:54.432Z,100351.09
2023-05-19T00:19:56.314Z,100353.72
2023-05-19T00:20:58.245Z,100354.25
2023-05-19T00:22:00.146Z,100356.50
2023-05-19T00:23:02.355Z,100357.50
2023-05-19T00:24:04.414Z,100354.28
2023-05-19T00:25:06.914Z,100353.88
2023-05-19T00:26:08.881Z,100355.91
2023-05-19T00:27:11.018Z,100354.41
2023-05-19T00:28:13.896Z,100352.19
2023-05-19T00:29:19.541Z,100350.13
2023-05-19T00:30:22.986Z,100354.63
2023-05-19T00:31:25.142Z,100351.75
2023-05-19T00:32:27.098Z,100348.56
2023-05-19T00:33:29.511Z,100344.81
2023-05-19T00:34:31.358Z,100346.25
2023-05-19T00:35:33.435Z,100344.22
2023-05-19T00:36:35.373Z,100339.72
2023-05-19T00:37:37.245Z,100340.19
2023-05-19T00:38:39.487Z,100339.75
2023-05-19T00:39:41.427Z,100337.38
2023-05-19T00:40:43.469Z,100340.16
2023-05-19T00:41:45.530Z,100338.53
2023-05-19T00:42:47.432Z,100338.53
2023-05-19T00:43:50.976Z,100334.69
2023-05-19T00:44:53.547Z,100332.47
2023-05-19T00:45:55.478Z,100328.87
2023-05-19T00:46:57.921Z,100334.12
2023-05-19T00:47:59.995Z,100331.53
2023-05-19T00:49:02.221Z,100337.38
2023-05-19T00:50:04.581Z,100332.72
2023-05-19T00:51:06.988Z,100332.13
2023-05-19T00:52:08.995Z,100334.59
2023-05-19T00:53:10.998Z,100337.81
2023-05-19T00:54:13.179Z,100329.94
2023-05-19T00:55:15.469Z,100329.97
2023-05-19T00:56:18.360Z,100324.38
2023-05-19T00:57:21.063Z,100331.44
2023-05-19T00:58:23.912Z,100326.56
2023-05-19T00:59:26.493Z,100325.78
2023-05-19T01:00:30.013Z,100317.91
2023-05-19T01:01:32.479Z,100314.44
2023-05-19T01:02:35.090Z,100314.59
2023-05-19T01:03:37.448Z,100316.81
2023-05-19T01:04:41.902Z,100322.28
2023-05-19T01:05:47.614Z,100315.44
2023-05-19T01:06:55.810Z,100306.97
2023-05-19T01:07:57.714Z,100312.41
2023-05-19T01:09:00.015Z,100308.56
2023-05-19T01:10:03.309Z,100302.34
2023-05-19T01:11:06.832Z,100312.63
2023-05-19T01:12:09.036Z,100309.78
2023-05-19T01:13:11.299Z,100313.00
2023-05-19T01:14:13.293Z,100315.63
2023-05-19T01:15:16.053Z,100312.03
2023-05-19T01:16:26.897Z,100318.91
2023-05-19T01:17:57.001Z,100309.41
2023-05-19T01:19:14.245Z,100307.97
2023-05-19T01:20:22.758Z,100307.16
2023-05-19T01:21:36.396Z,100307.19
2023-05-19T01:22:50.598Z,100302.81
2023-05-19T01:24:32.422Z,100306.03
2023-05-19T01:25:37.552Z,100311.47
2023-05-19T01:27:13.953Z,100307.63
2023-05-19T01:28:43.890Z,100305.78
2023-05-19T01:30:06.158Z,100306.03
2023-05-19T01:31:12.049Z,100311.00
2023-05-19T01:32:19.632Z,100313.84
2023-05-19T01:33:23.901Z,100312.06
2023-05-19T01:34:27.415Z,100312.38
2023-05-19T01:35:30.903Z,100311.13
2023-05-19T01:36:34.007Z,100309.28
2023-05-19T01:37:38.871Z,100314.13
2023-05-19T01:38:43.340Z,100312.63
2023-05-19T01:39:45.692Z,100315.97
2023-05-19T01:40:49.630Z,100315.16
2023-05-19T01:41:55.008Z,100313.28
2023-05-19T01:42:59.356Z,100309.69
2023-05-19T01:44:02.225Z,100306.72
2023-05-19T01:45:06.639Z,100315.03
2023-05-19T01:46:09.083Z,100312.84
2023-05-19T01:47:11.609Z,100312.63
2023-05-19T01:48:14.878Z,100314.09
2023-05-19T01:49:16.838Z,100316.28
2023-05-19T01:50:20.708Z,100310.88
2023-05-19T01:51:22.752Z,100314.94
2023-05-19T01:52:24.983Z,100310.50
2023-05-19T01:53:27.131Z,100308.91
2023-05-19T01:54:29.068Z,100305.69
2023-05-19T01:55:31.058Z,100314.16
2023-05-19T01:56:47.068Z,100314.13
2023-05-19T01:58:02.601Z,100311.72
2023-05-19T01:59:16.876Z,100318.78
2023-05-19T02:00:27.742Z,100315.59
2023-05-19T02:01:36.797Z,100321.00
2023-05-19T02:02:57.882Z,100320.56
2023-05-19T02:04:05.680Z,100327.16
2023-05-19T02:05:16.015Z,100324.34
2023-05-19T02:06:33.070Z,100325.44
2023-05-19T02:07:43.497Z,100331.87
2023-05-19T02:08:51.288Z,100330.94
2023-05-19T02:10:02.662Z,100336.19
2023-05-19T02:11:13.967Z,100334.22
2023-05-19T02:12:46.204Z,100338.72
2023-05-19T02:13:53.507Z,100333.94
2023-05-19T02:15:15.601Z,100336.34
2023-05-19T02:16:18.398Z,100341.56
2023-05-19T02:17:22.708Z,100341.41
2023-05-19T02:18:25.144Z,100334.09
2023-05-19T02:19:30.693Z,100344.78
2023-05-19T02:20:32.953Z,100338.31
2023-05-19T02:21:35.549Z,100335.09
2023-05-19T02:22:37.464Z,100337.50
2023-05-19T02:23:42.570Z,100327.81
2023-05-19T02:24:46.610Z,100327.41
2023-05-19T02:25:48.674Z,100329.81
2023-05-19T02:26:52.140Z,100329.38
2023-05-19T02:27:54.778Z,100328.66
2023-05-19T02:28:56.604Z,100327.09
2023-05-19T02:29:59.718Z,100324.22
2023-05-19T02:31:01.722Z,100329.03
2023-05-19T02:32:04.059Z,100323.78
2023-05-19T02:33:06.663Z,100326.03
2023-05-19T02:34:08.753Z,100331.81
2023-05-19T02:35:11.774Z,100326.38
2023-05-19T02:36:14.814Z,100327.03
2023-05-19T02:37:17.749Z,100319.84
2023-05-19T02:38:19.717Z,100323.78
2023-05-19T02:39:21.594Z,100317.56
2023-05-19T02:40:23.800Z,100315.72
2023-05-19T02:41:25.984Z,100320.97
2023-05-19T02:42:27.885Z,100324.41
2023-05-19T02:43:30.646Z,100325.84
2023-05-19T02:44:32.541Z,100327.44
2023-05-19T02:45:34.667Z,100321.44
2023-05-19T02:46:36.648Z,100323.78
2023-05-19T02:47:38.909Z,100318.16
2023-05-19T02:48:41.295Z,100316.53
2023-05-19T02:49:44.254Z,100318.78
2023-05-19T02:50:46.512Z,100314.34
2023-05-19T02:51:48.463Z,100313.75
2023-05-19T02:52:50.411Z,100312.91
2023-05-19T02:53:52.370Z,100310.88
2023-05-19T02:54:54.260Z,100308.03
2023-05-19T02:55:56.451Z,100311.03
2023-05-19T02:56:58.505Z,100312.84
2023-05-19T02:58:00.367Z,100310.41
2023-05-19T02:59:02.485Z,100313.09
2023-05-19T03:00:05.883Z,100311.91
2023-05-19T03:01:08.107Z,100310.69
2023-05-19T03:02:10.045Z,100313.75
2023-05-19T03:03:12.079Z,100307.44
2023-05-19T03:04:14.058Z,100313.31
2023-05-19T03:05:15.980Z,100314.94
2023-05-19T03:06:18.288Z,100310.12
2023-05-19T03:07:25.046Z,100318.72
2023-05-19T03:08:26.940Z,100313.91
2023-05-19T03:09:28.794Z,100315.94
2023-05-19T03:10:31.083Z,100317.75
2023-05-19T03:11:33.425Z,100312.56
2023-05-19T03:12:35.517Z,100315.81
2023-05-19T03:13:37.512Z,100316.62
2023-05-19T03:14:39.475Z,100312.59
2023-05-19T03:15:42.517Z,100315.22
2023-05-19T03:16:44.951Z,100314.00
2023-05-19T03:17:47.132Z,100315.06
2023-05-19T03:18:49.151Z,100317.25
2023-05-19T03:19:51.316Z,100314.22
2023-05-19T03:20:56.577Z,100319.25
2023-05-19T03:21:58.814Z,100317.47
2023-05-19T03:23:01.284Z,100323.88
2023-05-19T03:24:03.359Z,100325.09
2023-05-19T03:25:05.624Z,100323.88
2023-05-19T03:26:07.571Z,100325.88
2023-05-19T03:27:09.792Z,100326.28
2023-05-19T03:28:11.985Z,100323.88
2023-05-19T03:29:13.949Z,100324.84
2023-05-19T03:30:15.910Z,100316.19
2023-05-19T03:31:19.636Z,100326.25
2023-05-19T03:32:21.975Z,100333.47
2023-05-19T03:33:24.041Z,100332.69
2023-05-19T03:34:26.596Z,100333.94
2023-05-19T03:35:28.695Z,100337.22
2023-05-19T03:36:39.716Z,100335.37
2023-05-19T03:37:43.220Z,100332.41
2023-05-19T03:38:45.150Z,100333.94
2023-05-19T03:39:47.035Z,100337.16
2023-05-19T03:40:49.001Z,100333.53
2023-05-19T03:41:51.333Z,100335.94
2023-05-19T03:42:54.476Z,100332.34
2023-05-19T03:43:56.414Z,100329.09
2023-05-19T03:44:58.291Z,100330.31
2023-05-19T03:46:00.535Z,100331.66
2023-05-19T03:47:05.701Z,100334.06
2023-05-19T03:48:09.974Z,100335.47
2023-05-19T03:49:13.901Z,100332.66
2023-05-19T03:50:16.566Z,100327.00
2023-05-19T03:51:18.836Z,100332.59
2023-05-19T03:52:20.874Z,100328.13
2023-05-19T03:53:23.548Z,100328.56
2023-05-19T03:54:26.212Z,100328.56
2023-05-19T03:55:29.935Z,100327.53
2023-05-19T03:56:32.891Z,100331.38
2023-05-19T03:57:34.814Z,100332.41
2023-05-19T03:58:39.339Z,100329.75
2023-05-19T03:59:41.461Z,100331.97
2023-05-19T04:00:43.719Z,100330.56
2023-05-19T04:01:46.503Z,100329.75
2023-05-19T04:02:48.717Z,100328.41
2023-05-19T04:03:50.774Z,100328.13
2023-05-19T04:04:53.830Z,100324.87
2023-05-19T04:05:55.927Z,100331.53
2023-05-19T04:06:58.320Z,100329.25
2023-05-19T04:08:00.454Z,100334.31
2023-05-19T04:09:03.870Z,100342.44
2023-05-19T04:10:06.280Z,100333.28
2023-05-19T04:11:08.213Z,100343.38
2023-05-19T04:12:10.969Z,100339.19
2023-05-19T04:13:12.871Z,100338.50
2023-05-19T04:14:14.738Z,100343.19
2023-05-19T04:15:18.390Z,100341.59
2023-05-19T04:16:21.337Z,100343.13
2023-05-19T04:17:26.383Z,100344.19
2023-05-19T04:18:29.565Z,100335.91
2023-05-19T04:19:31.692Z,100339.31
2023-05-19T04:20:33.746Z,100335.78
2023-05-19T04:21:35.862Z,100340.47
2023-05-19T04:22:38.078Z,100339.59
2023-05-19T04:23:40.131Z,100346.44
2023-05-19T04:24:42.176Z,100349.66
2023-05-19T04:25:44.237Z,100345.22
2023-05-19T04:26:47.324Z,100343.97
2023-05-19T04:27:50.009Z,100348.16
2023-05-19T04:28:53.866Z,100348.72
2023-05-19T04:29:56.142Z,100351.50
2023-05-19T04:30:58.829Z,100353.09
2023-05-19T04:32:01.178Z,100351.91
2023-05-19T04:33:04.932Z,100353.72
2023-05-19T04:34:10.216Z,100351.22
2023-05-19T04:35:13.710Z,100351.12
2023-05-19T04:36:17.457Z,100354.94
2023-05-19T04:37:20.192Z,100351.09
2023-05-19T04:38:22.511Z,100356.50
2023-05-19T04:39:24.930Z,100360.59
2023-05-19T04:40:27.357Z,100362.94
2023-05-19T04:41:29.557Z,100367.59
2023-05-19T04:42:33.039Z,100366.94
2023-05-19T04:43:35.406Z,100361.91
2023-05-19T04:44:40.138Z,100368.47
2023-05-19T04:45:42.664Z,100366.66
2023-05-19T04:46:45.329Z,100362.03
2023-05-19T04:47:48.348Z,100361.19
2023-05-19T04:48:50.693Z,100359.28
2023-05-19T04:49:55.679Z,100373.88
2023-05-19T04:50:57.877Z,100370.16
2023-05-19T04:51:59.794Z,100365.22
2023-05-19T04:53:02.072Z,100375.94
2023-05-19T04:54:04.675Z,100366.44
2023-05-19T04:55:08.721Z,100375.78
2023-05-19T04:56:13.772Z,100366.94
2023-05-19T04:57:15.701Z,100368.63
2023-05-19T04:58:18.418Z,100370.69
2023-05-19T04:59:23.282Z,100373.09
2023-05-19T05:00:26.197Z,100371.91
2023-05-19T05:01:31.259Z,100374.94
2023-05-19T05:02:34.057Z,100372.59
2023-05-19T05:03:36.209Z,100378.84
2023-05-19T05:04:42.492Z,100375.72
2023-05-19T05:05:44.496Z,100372.34
2023-05-19T05:06:48.603Z,100380.03
2023-05-19T05:07:50.933Z,100374.28
2023-05-19T05:08:52.855Z,100376.31
2023-05-19T05:09:55.398Z,100376.22
2023-05-19T05:10:57.776Z,100377.75
2023-05-19T05:12:00.716Z,100379.66
2023-05-19T05:13:02.936Z,100377.25
2023-05-19T05:14:05.333Z,100373.03
2023-05-19T05:15:08.679Z,100375.78
2023-05-19T05:16:12.131Z,100375.78
2023-05-19T05:17:14.489Z,100379.72
2023-05-19T05:18:17.134Z,100378.12
2023-05-19T05:19:22.220Z,100378.88
2023-05-19T05:20:24.983Z,100376.09
2023-05-19T05:21:28.068Z,100373.22
2023-05-19T05:22:30.185Z,100371.97
2023-05-19T05:23:32.516Z,100372.44
2023-05-19T05:24:34.694Z,100368.34
2023-05-19T05:25:38.505Z,100373.16
2023-05-19T05:26:40.679Z,100369.28
2023-05-19T05:27:42.675Z,100370.50
2023-05-19T05:28:44.713Z,100375.91
2023-05-19T05:29:46.592Z,100368.16
2023-05-19T05:30:50.321Z,100363.44
2023-05-19T05:31:53.122Z,100374.09
2023-05-19T05:32:55.814Z,100378.47
2023-05-19T05:34:00.086Z,100377.56
2023-05-19T05:35:02.975Z,100370.03
2023-05-19T05:36:06.410Z,100380.38
2023-05-19T05:37:09.233Z,100380.78
2023-05-19T05:38:11.847Z,100380.75
2023-05-19T05:39:13.977Z,100377.34
2023-05-19T05:40:17.148Z,100382.44
2023-05-19T05:41:19.447Z,100385.22
2023-05-19T05:42:21.831Z,100385.81
2023-05-19T05:43:24.040Z,100387.09
2023-05-19T05:44:26.957Z,100385.16
2023-05-19T05:45:29.257Z,100389.16
2023-05-19T05:46:32.497Z,100380.75
2023-05-19T05:47:38.117Z,100380.13
2023-05-19T05:48:42.645Z,100384.38
2023-05-19T05:49:48.227Z,100384.50
2023-05-19T05:50:50.867Z,100387.78
2023-05-19T05:52:04.944Z,100382.25
2023-05-19T05:53:09.699Z,100389.59
2023-05-19T05:54:12.757Z,100388.69
2023-05-19T05:55:17.724Z,100384.06
2023-05-19T05:56:20.847Z,100383.63
2023-05-19T05:57:23.660Z,100383.84
2023-05-19T05:58:25.886Z,100387.13
2023-05-19T05:59:28.603Z,100382.50
2023-05-19T06:00:31.148Z,100382.03
2023-05-19T06:01:35.943Z,100384.44
2023-05-19T06:02:38.935Z,100383.50
2023-05-19T06:03:42.498Z,100379.94
2023-05-19T06:04:45.147Z,100374.28
2023-05-19T06:05:47.274Z,100375.84
2023-05-19T06:06:49.553Z,100380.44
2023-05-19T06:07:52.543Z,100376.84
2023-05-19T06:08:54.732Z,100382.75
2023-05-19T06:09:57.143Z,100382.38
2023-05-19T06:10:59.706Z,100385.66
2023-05-19T06:12:02.701Z,100383.63
2023-05-19T06:13:05.616Z,100388.31
2023-05-19T06:14:07.495Z,100390.88
2023-05-19T06:15:10.963Z,100391.75
2023-05-19T06:16:13.354Z,100392.66
2023-05-19T06:17:15.630Z,100388.63
2023-05-19T06:18:17.726Z,100394.25
2023-05-19T06:19:20.208Z,100386.16
2023-05-19T06:20:22.705Z,100393.66
2023-05-19T06:21:24.658Z,100389.94
2023-05-19T06:22:28.022Z,100390.09
2023-05-19T06:23:31.120Z,100390.31
2023-05-19T06:24:33.228Z,100396.16
2023-05-19T06:25:35.283Z,100388.09
2023-05-19T06:26:37.746Z,100400.50
2023-05-19T06:27:40.128Z,100396.97
2023-05-19T06:28:42.009Z,100391.69
2023-05-19T06:29:43.960Z,100395.75
2023-05-19T06:30:45.969Z,100398.41
2023-05-19T06:31:49.418Z,100394.56
2023-05-19T06:32:52.009Z,100402.87
2023-05-19T06:33:54.182Z,100407.78
2023-05-19T06:34:56.254Z,100410.28
2023-05-19T06:35:58.194Z,100408.84
2023-05-19T06:37:02.336Z,100412.47
2023-05-19T06:38:05.735Z,100416.31
2023-05-19T06:39:07.664Z,100415.03
2023-05-19T06:40:11.798Z,100417.19
2023-05-19T06:41:14.402Z,100419.81
2023-05-19T06:42:16.512Z,100417.75
2023-05-19T06:43:22.402Z,100419.47
2023-05-19T06:44:26.028Z,100420.34
2023-05-19T06:45:27.902Z,100418.69
2023-05-19T06:46:30.173Z,100418.72
2023-05-19T06:47:32.191Z,100424.19
2023-05-19T06:48:34.456Z,100417.00
2023-05-19T06:49:37.394Z,100420.91
2023-05-19T06:50:39.417Z,100424.94
2023-05-19T06:51:41.710Z,100416.84
2023-05-19T06:52:44.329Z,100419.97
2023-05-19T06:53:48.966Z,100420.91
2023-05-19T06:54:50.960Z,100425.62
2023-05-19T06:55:59.355Z,100423.59
2023-05-19T06:57:01.903Z,100424.25
2023-05-19T06:58:04.223Z,100423.03
2023-05-19T06:59:06.445Z,100422.31
2023-05-19T07:00:11.620Z,100429.59
2023-05-19T07:01:14.511Z,100430.88
2023-05-19T07:02:16.852Z,100428.59
2023-05-19T07:03:18.972Z,100430.63
2023-05-19T07:04:21.259Z,100428.91
2023-05-19T07:05:23.174Z,100428.47
2023-05-19T07:06:25.394Z,100431.62
2023-05-19T07:07:27.472Z,100425.03
2023-05-19T07:08:32.234Z,100421.28
2023-05-19T07:09:35.585Z,100429.53
2023-05-19T07:10:38.060Z,100424.50
2023-05-19T07:11:41.492Z,100420.19
2023-05-19T07:12:43.865Z,100416.59
2023-05-19T07:13:45.822Z,100420.47
2023-05-19T07:14:49.822Z,100425.41
2023-05-19T07:15:56.001Z,100415.53
2023-05-19T07:16:58.380Z,100419.34
2023-05-19T07:18:00.579Z,100421.72
2023-05-19T07:19:02.533Z,100420.72
2023-05-19T07:20:10.045Z,100424.66
2023-05-19T07:21:12.127Z,100416.19
2023-05-19T07:22:14.882Z,100416.59
2023-05-19T07:23:17.464Z,100417.19
2023-05-19T07:24:22.196Z,100420.91
2023-05-19T07:25:26.140Z,100419.53
2023-05-19T07:26:28.783Z,100422.69
2023-05-19T07:27:30.629Z,100424.59
2023-05-19T07:28:34.355Z,100422.12
2023-05-19T07:29:36.932Z,100416.41
2023-05-19T07:30:39.116Z,100419.13
2023-05-19T07:31:41.054Z,100421.78
2023-05-19T07:32:43.077Z,100416.53
2023-05-19T07:33:45.160Z,100414.84
2023-05-19T07:34:47.244Z,100413.09
2023-05-19T07:35:49.408Z,100406.50
2023-05-19T07:36:52.120Z,100409.41
2023-05-19T07:37:54.078Z,100402.81
2023-05-19T07:38:56.215Z,100407.22
2023-05-19T07:39:58.233Z,100395.56
2023-05-19T07:41:01.834Z,100400.38
2023-05-19T07:42:03.879Z,100401.31
2023-05-19T07:43:05.989Z,100399.84
2023-05-19T07:44:08.006Z,100403.03
2023-05-19T07:45:10.396Z,100405.09
2023-05-19T07:46:12.595Z,100402.75
2023-05-19T07:47:14.685Z,100405.63
2023-05-19T07:48:18.737Z,100402.22
2023-05-19T07:49:20.654Z,100400.50
2023-05-19T07:50:22.604Z,100413.75
2023-05-19T07:51:24.826Z,100403.63
2023-05-19T07:52:26.841Z,100412.16
2023-05-19T07:53:28.875Z,100407.00
2023-05-19T07:54:30.756Z,100411.38
2023-05-19T07:55:32.621Z,100413.75
2023-05-19T07:56:34.790Z,100402.69
2023-05-19T07:57:36.781Z,100411.47
2023-05-19T07:58:38.688Z,100413.09
2023-05-19T07:59:40.808Z,100407.50
2023-05-19T08:00:43.438Z,100414.69
2023-05-19T08:01:45.935Z,100409.41
2023-05-19T08:02:48.050Z,100404.59
2023-05-19T08:03:50.180Z,100413.13
2023-05-19T08:04:53.196Z,100401.94
2023-05-19T08:05:55.459Z,100402.91
2023-05-19T08:06:57.648Z,100407.97
2023-05-19T08:07:59.555Z,100396.03
2023-05-19T08:09:01.849Z,100415.19
2023-05-19T08:10:04.271Z,100410.44
2023-05-19T08:11:06.671Z,100412.84
2023-05-19T08:12:08.843Z,100401.44
2023-05-19T08:13:10.864Z,100404.88
2023-05-19T08:14:13.066Z,100396.13
2023-05-19T08:15:14.898Z,100405.63
2023-05-19T08:16:16.880Z,100401.41
2023-05-19T08:17:19.261Z,100406.16
2023-05-19T08:18:21.341Z,100404.59
2023-05-19T08:19:23.301Z,100404.84
2023-05-19T08:20:25.266Z,100407.50
2023-05-19T08:21:27.155Z,100406.91
2023-05-19T08:22:29.416Z,100405.72
2023-05-19T08:23:31.814Z,100407.50
2023-05-19T08:24:33.922Z,100408.38
2023-05-19T08:25:35.895Z,100406.53
2023-05-19T08:26:38.071Z,100408.50
2023-05-19T08:27:40.487Z,100407.19
2023-05-19T08:28:42.433Z,100410.31
2023-05-19T08:29:44.340Z,100403.88
2023-05-19T08:30:46.280Z,100410.34
2023-05-19T08:31:48.297Z,100396.56
2023-05-19T08:32:50.611Z,100402.34
2023-05-19T08:33:52.888Z,100406.63
2023-05-19T08:34:54.743Z,100399.19
2023-05-19T08:35:58.178Z,100403.97
2023-05-19T08:37:00.164Z,100397.81
2023-05-19T08:38:02.360Z,100400.19
2023-05-19T08:39:04.592Z,100408.38
2023-05-19T08:40:08.820Z,100402.81
2023-05-19T08:41:10.957Z,100404.78
2023-05-19T08:42:12.892Z,100392.56
2023-05-19T08:43:15.349Z,100403.41
2023-05-19T08:44:19.020Z,100404.84
2023-05-19T08:45:21.111Z,100399.75
2023-05-19T08:46:25.329Z,100402.16
2023-05-19T08:47:28.294Z,100406.16
2023-05-19T08:48:33.885Z,100403.50
2023-05-19T08:49:42.976Z,100401.09
2023-05-19T08:50:53.800Z,100402.97
2023-05-19T08:51:58.230Z,100403.25
2023-05-19T08:53:28.983Z,100403.69
2023-05-19T08:54:44.867Z,100396.44
2023-05-19T08:56:00.997Z,100398.25
2023-05-19T08:57:03.063Z,100395.09
2023-05-19T08:58:05.127Z,100392.16
2023-05-19T08:59:07.950Z,100390.00
2023-05-19T09:00:13.358Z,100397.44
2023-05-19T09:01:18.749Z,100393.72
2023-05-19T09:02:22.720Z,100391.75
2023-05-19T09:03:26.546Z,100392.87
2023-05-19T09:04:30.207Z,100394.25
2023-05-19T09:05:33.176Z,100394.53
2023-05-19T09:06:35.407Z,100397.41
2023-05-19T09:07:37.904Z,100393.97
2023-05-19T09:08:43.550Z,100396.84
2023-05-19T09:09:45.690Z,100388.06
2023-05-19T09:10:47.920Z,100399.22
2023-05-19T09:11:49.785Z,100398.47
2023-05-19T09:12:52.542Z,100394.47
2023-05-19T09:13:54.564Z,100398.72
2023-05-19T09:14:57.887Z,100398.69
2023-05-19T09:16:00.351Z,100393.88
2023-05-19T09:17:02.702Z,100393.84
2023-05-19T09:18:12.382Z,100396.31
2023-05-19T09:19:17.566Z,100398.75
2023-05-19T09:20:19.496Z,100393.19
2023-05-19T09:21:31.012Z,100399.81
2023-05-19T09:22:35.776Z,100389.72
2023-05-19T09:23:37.678Z,100388.63
2023-05-19T09:24:40.482Z,100391.06
2023-05-19T09:25:49.939Z,100391.84
2023-05-19T09:26:55.224Z,100391.84
2023-05-19T09:27:57.967Z,100391.31
2023-05-19T09:28:59.863Z,100392.91
2023-05-19T09:30:09.275Z,100392.91
2023-05-19T09:31:11.909Z,100395.56
2023-05-19T09:32:25.425Z,100394.47
2023-05-19T09:33:28.644Z,100394.25
2023-05-19T09:34:30.704Z,100391.81
2023-05-19T09:35:34.841Z,100383.34
2023-05-19T09:36:40.009Z,100386.25
2023-05-19T09:37:42.895Z,100388.88
2023-05-19T09:38:45.936Z,100379.53
2023-05-19T09:39:52.051Z,100372.56
2023-05-19T09:40:57.260Z,100373.31
2023-05-19T09:41:59.175Z,100373.56
2023-05-19T09:43:05.504Z,100383.81
2023-05-19T09:44:07.480Z,100375.78
2023-05-19T09:45:09.773Z,100379.75
2023-05-19T09:46:13.791Z,100379.06
2023-05-19T09:47:16.875Z,100379.34
2023-05-19T09:48:19.091Z,100375.16
2023-05-19T09:49:25.707Z,100379.44
2023-05-19T09:50:30.703Z,100370.91
2023-05-19T09:51:33.125Z,100374.34
2023-05-19T09:52:39.050Z,100371.50
2023-05-19T09:53:42.127Z,100364.84
2023-05-19T09:54:45.398Z,100366.75
2023-05-19T09:55:48.607Z,100375.19
2023-05-19T09:57:07.106Z,100371.56
2023-05-19T09:58:12.609Z,100363.66
2023-05-19T09:59:16.351Z,100371.34
2023-05-19T10:00:19.703Z,100367.94
2023-05-19T10:01:23.126Z,100367.41
2023-05-19T10:02:26.486Z,100375.38
2023-05-19T10:03:28.752Z,100371.63
2023-05-19T10:04:31.392Z,100371.91
2023-05-19T10:05:34.476Z,100370.56
2023-05-19T10:06:37.059Z,100366.84
2023-05-19T10:07:40.616Z,100367.91
2023-05-19T10:08:43.589Z,100365.78
2023-05-19T10:09:46.433Z,100373.19
2023-05-19T10:10:48.372Z,100364.59
2023-05-19T10:11:53.293Z,100352.66
2023-05-19T10:12:55.903Z,100360.66
2023-05-19T10:13:58.318Z,100364.97
2023-05-19T10:15:00.413Z,100353.06
2023-05-19T10:16:03.380Z,100357.91
2023-05-19T10:17:08.034Z,100359.22
2023-05-19T10:18:10.964Z,100360.44
2023-05-19T10:19:14.254Z,100354.59
2023-05-19T10:20:17.345Z,100359.22
2023-05-19T10:21:19.245Z,100351.72
2023-05-19T10:22:21.790Z,100357.69
2023-05-19T10:23:24.234Z,100353.62
2023-05-19T10:24:26.729Z,100352.09
2023-05-19T10:25:31.373Z,100349.44
2023-05-19T10:26:35.342Z,100348.97
2023-05-19T10:27:40.882Z,100348.94
2023-05-19T10:28:45.549Z,100340.41
2023-05-19T10:29:50.684Z,100345.81
2023-05-19T10:30:56.594Z,100344.34
2023-05-19T10:32:03.102Z,100339.97
2023-05-19T10:33:10.352Z,100339.38
2023-05-19T10:34:54.269Z,100341.34
2023-05-19T10:36:02.686Z,100336.38
2023-05-19T10:37:28.818Z,100340.41
2023-05-19T10:38:40.215Z,100332.37
2023-05-19T10:39:44.547Z,100336.69
2023-05-19T10:41:11.768Z,100333.75
2023-05-19T10:42:24.049Z,100325.41
2023-05-19T10:43:47.421Z,100336.75
2023-05-19T10:45:02.620Z,100334.94
2023-05-19T10:46:05.599Z,100324.31
2023-05-19T10:47:08.675Z,100329.38
2023-05-19T10:48:13.980Z,100331.38
2023-05-19T10:49:22.706Z,100326.66
2023-05-19T10:50:25.032Z,100321.09
2023-05-19T10:51:33.948Z,100325.72
2023-05-19T10:52:40.111Z,100323.50
2023-05-19T10:53:46.356Z,100319.75
2023-05-19T10:54:48.320Z,100320.72
2023-05-19T10:55:59.373Z,100311.63
2023-05-19T10:57:01.243Z,100314.38
2023-05-19T10:58:03.777Z,100314.38
2023-05-19T10:59:05.922Z,100313.25
2023-05-19T11:00:28.172Z,100317.19
2023-05-19T11:01:35.551Z,100315.84
2023-05-19T11:02:42.955Z,100318.09
2023-05-19T11:03:47.266Z,100313.09
2023-05-19T11:04:54.167Z,100317.84
2023-05-19T11:06:21.043Z,100317.00
2023-05-19T11:07:24.796Z,100311.44
2023-05-19T11:08:33.679Z,100316.97
2023-05-19T11:09:41.118Z,100316.56
2023-05-19T11:10:48.593Z,100307.63
2023-05-19T11:11:54.553Z,100300.50
2023-05-19T11:12:59.868Z,100311.63
2023-05-19T11:14:01.781Z,100312.69
2023-05-19T11:15:04.059Z,100311.66
2023-05-19T11:16:09.332Z,100307.00
2023-05-19T11:17:15.314Z,100311.34
2023-05-19T11:18:19.065Z,100307.00
2023-05-19T11:19:31.231Z,100309.28
2023-05-19T11:20:34.998Z,100309.78
2023-05-19T11:21:48.265Z,100304.44
2023-05-19T11:23:11.129Z,100312.66
2023-05-19T11:24:40.154Z,100314.19
2023-05-19T11:25:45.142Z,100309.41
2023-05-19T11:26:47.560Z,100312.72
2023-05-19T11:27:51.396Z,100314.81
2023-05-19T11:28:53.734Z,100302.25
2023-05-19T11:30:11.548Z,100306.06
2023-05-19T11:31:13.558Z,100307.31
2023-05-19T11:32:16.444Z,100308.56
2023-05-19T11:33:19.969Z,100306.19
2023-05-19T11:34:25.961Z,100300.16
2023-05-19T11:35:29.606Z,100302.25
2023-05-19T11:36:31.812Z,100304.47
2023-05-19T11:37:34.657Z,100301.22
2023-05-19T11:38:36.724Z,100300.16
2023-05-19T11:39:39.880Z,100298.81
2023-05-19T11:40:43.643Z,100294.22
2023-05-19T11:41:45.593Z,100294.84
2023-05-19T11:42:47.495Z,100300.38
2023-05-19T11:43:49.428Z,100298.00
2023-05-19T11:44:55.932Z,100295.72
2023-05-19T11:45:58.267Z,100294.87
2023-05-19T11:47:01.000Z,100289.59
2023-05-19T11:48:03.536Z,100294.22
2023-05-19T11:49:05.826Z,100295.22
2023-05-19T11:50:10.848Z,100299.25
2023-05-19T11:51:13.271Z,100298.22
2023-05-19T11:52:15.590Z,100293.12
2023-05-19T11:53:19.537Z,100295.63
2023-05-19T11:54:21.631Z,100304.03
2023-05-19T11:55:23.796Z,100303.22
2023-05-19T11:56:26.118Z,100298.81
2023-05-19T11:57:28.044Z,100300.84
2023-05-19T11:58:30.499Z,100297.69
2023-05-19T11:59:35.781Z,100292.41
2023-05-19T12:00:40.879Z,100291.87
2023-05-19T12:01:43.486Z,100290.91
2023-05-19T12:02:45.642Z,100294.09
2023-05-19T12:03:49.738Z,100291.09
2023-05-19T12:04:52.737Z,100291.22
2023-05-19T12:05:54.818Z,100293.69
2023-05-19T12:06:57.132Z,100291.37
2023-05-19T12:08:00.960Z,100286.88
2023-05-19T12:09:05.330Z,100283.63
2023-05-19T12:10:08.465Z,100295.28
2023-05-19T12:11:10.589Z,100287.78
2023-05-19T12:12:23.437Z,100298.94